createdAt,value
2022-08-31T00:01:26.102Z,65.12
2022-08-31T00:03:43.331Z,64.52
2022-08-31T00:06:00.302Z,64.88
2022-08-31T00:08:17.320Z,65.99
2022-08-31T00:10:36.984Z,66.30
2022-08-31T00:12:57.438Z,65.57
2022-08-31T00:15:14.940Z,65.54
2022-08-31T00:17:32.106Z,66.03
2022-08-31T00:19:49.595Z,66.37
2022-08-31T00:22:07.574Z,65.20
2022-08-31T00:24:24.805Z,66.84
2022-08-31T00:26:41.769Z,66.00
2022-08-31T00:28:59.288Z,66.11
2022-08-31T00:31:17.270Z,66.44
2022-08-31T00:33:34.500Z,65.15
2022-08-31T00:35:51.505Z,66.58
2022-08-31T00:38:08.465Z,65.80
2022-08-31T00:40:25.817Z,67.10
2022-08-31T00:42:43.162Z,67.40
2022-08-31T00:45:00.223Z,67.73
2022-08-31T00:47:17.349Z,69.41
2022-08-31T00:49:36.614Z,68.81
2022-08-31T00:51:53.554Z,66.91
2022-08-31T00:54:10.936Z,69.65
2022-08-31T00:56:28.892Z,68.33
2022-08-31T00:58:45.793Z,67.97
2022-08-31T01:01:12.717Z,68.30
2022-08-31T01:03:30.270Z,70.39
2022-08-31T01:05:47.482Z,69.24
2022-08-31T01:08:04.444Z,70.13
2022-08-31T01:10:21.466Z,69.32
2022-08-31T01:12:38.665Z,68.24
2022-08-31T01:14:55.708Z,68.39
2022-08-31T01:17:13.582Z,69.55
2022-08-31T01:19:30.614Z,70.59
2022-08-31T01:21:47.756Z,70.21
2022-08-31T01:24:04.922Z,70.31
2022-08-31T01:26:22.222Z,70.01
2022-08-31T01:28:39.254Z,69.60
2022-08-31T01:30:58.440Z,69.57
2022-08-31T01:33:15.675Z,70.26
2022-08-31T01:35:33.247Z,70.85
2022-08-31T01:37:50.201Z,69.61
2022-08-31T01:40:08.599Z,70.88
2022-08-31T01:42:30.943Z,70.87
2022-08-31T01:44:51.292Z,69.22
2022-08-31T01:47:09.802Z,70.78
2022-08-31T01:49:26.940Z,71.35
2022-08-31T01:51:43.986Z,70.73
2022-08-31T01:54:00.994Z,69.45
2022-08-31T01:56:18.071Z,69.99
2022-08-31T01:58:35.218Z,70.92
2022-08-31T02:00:52.224Z,69.52
2022-08-31T02:03:10.270Z,69.81
2022-08-31T02:05:27.309Z,70.25
2022-08-31T02:07:44.245Z,70.26
2022-08-31T02:10:01.597Z,70.35
2022-08-31T02:12:18.674Z,70.46
2022-08-31T02:14:35.714Z,69.90
2022-08-31T02:16:53.661Z,72.01
2022-08-31T02:19:10.778Z,70.44
2022-08-31T02:21:27.780Z,71.70
2022-08-31T02:23:44.861Z,70.46
2022-08-31T02:26:01.944Z,70.86
2022-08-31T02:28:19.045Z,72.07
2022-08-31T02:30:35.961Z,70.84
2022-08-31T02:32:53.314Z,71.14
2022-08-31T02:35:11.274Z,72.61
2022-08-31T02:37:28.360Z,72.31
2022-08-31T02:39:46.635Z,71.62
2022-08-31T02:42:05.757Z,72.18
2022-08-31T02:44:25.219Z,70.65
2022-08-31T02:46:42.557Z,71.09
2022-08-31T02:48:59.889Z,73.43
2022-08-31T02:51:16.905Z,73.78
2022-08-31T02:53:34.187Z,73.96
2022-08-31T02:55:51.513Z,71.79
2022-08-31T02:58:08.597Z,72.36
2022-08-31T03:00:25.548Z,73.82
2022-08-31T03:02:42.986Z,73.34
2022-08-31T03:04:59.978Z,73.42
2022-08-31T03:07:16.974Z,74.42
2022-08-31T03:09:35.150Z,73.68
2022-08-31T03:11:52.487Z,74.25
2022-08-31T03:14:09.476Z,73.69
2022-08-31T03:16:26.615Z,73.24
2022-08-31T03:18:43.918Z,75.96
2022-08-31T03:21:01.296Z,74.57
2022-08-31T03:23:18.458Z,76.89
2022-08-31T03:25:35.737Z,74.83
2022-08-31T03:27:55.149Z,75.52
2022-08-31T03:30:12.476Z,75.75
2022-08-31T03:32:29.566Z,74.88
2022-08-31T03:34:46.819Z,75.33
2022-08-31T03:37:04.161Z,74.01
2022-08-31T03:39:21.431Z,75.30
2022-08-31T03:41:38.759Z,75.00
2022-08-31T03:43:55.858Z,75.85
2022-08-31T03:46:12.900Z,74.17
2022-08-31T03:48:30.228Z,74.51
2022-08-31T03:50:47.186Z,74.62
2022-08-31T03:53:05.322Z,74.75
2022-08-31T03:55:23.261Z,76.34
2022-08-31T03:57:40.266Z,76.37
2022-08-31T03:59:57.298Z,74.32
2022-08-31T04:02:14.313Z,76.24
2022-08-31T04:04:31.300Z,73.67
2022-08-31T04:06:48.611Z,73.58
2022-08-31T04:09:05.636Z,74.25
2022-08-31T04:11:25.535Z,74.48
2022-08-31T04:13:59.534Z,74.20
2022-08-31T04:16:16.668Z,75.51
2022-08-31T04:18:33.805Z,76.18
2022-08-31T04:20:51.747Z,76.93
2022-08-31T04:23:09.101Z,77.54
2022-08-31T04:25:26.218Z,77.43
2022-08-31T04:27:43.165Z,76.32
2022-08-31T04:30:00.423Z,79.07
2022-08-31T04:32:17.688Z,77.99
2022-08-31T04:34:34.827Z,77.24
2022-08-31T04:36:51.765Z,79.38
2022-08-31T04:39:08.888Z,78.28
2022-08-31T04:41:25.831Z,78.55
2022-08-31T04:43:42.751Z,79.50
2022-08-31T04:45:59.753Z,80.72
2022-08-31T04:48:16.772Z,80.39
2022-08-31T04:50:33.849Z,79.86
2022-08-31T04:52:58.425Z,81.64
2022-08-31T04:55:21.265Z,79.31
2022-08-31T04:57:41.223Z,81.90
2022-08-31T04:59:58.188Z,80.99
2022-08-31T05:02:15.379Z,81.66
2022-08-31T05:04:32.419Z,82.35
2022-08-31T05:06:49.431Z,82.35
2022-08-31T05:09:06.786Z,81.47
2022-08-31T05:11:25.084Z,81.44
2022-08-31T05:13:42.154Z,81.79
2022-08-31T05:16:00.266Z,81.21
2022-08-31T05:18:17.348Z,81.57
2022-08-31T05:20:34.453Z,81.90
2022-08-31T05:22:52.418Z,84.09
2022-08-31T05:25:09.498Z,83.58
2022-08-31T05:27:26.823Z,83.74
2022-08-31T05:29:43.843Z,83.39
2022-08-31T05:32:01.187Z,83.09
2022-08-31T05:34:18.193Z,82.18
2022-08-31T05:36:35.187Z,83.08
2022-08-31T05:38:52.102Z,83.72
2022-08-31T05:41:09.195Z,83.45
2022-08-31T05:43:26.260Z,84.21
2022-08-31T05:45:43.314Z,83.61
2022-08-31T05:48:00.625Z,83.57
2022-08-31T05:50:17.883Z,84.24
2022-08-31T05:52:35.173Z,84.94
2022-08-31T05:54:52.214Z,84.92
2022-08-31T05:57:09.248Z,86.66
2022-08-31T05:59:26.165Z,86.53
2022-08-31T06:01:43.254Z,85.53
2022-08-31T06:04:00.301Z,85.71
2022-08-31T06:06:18.531Z,85.54
2022-08-31T06:08:35.624Z,85.93
2022-08-31T06:10:52.592Z,84.46
2022-08-31T06:13:10.081Z,86.34
2022-08-31T06:15:27.005Z,86.17
2022-08-31T06:17:44.066Z,85.46
2022-08-31T06:20:02.926Z,86.44
2022-08-31T06:22:20.200Z,86.07
2022-08-31T06:24:37.197Z,86.72
2022-08-31T06:26:57.932Z,85.79
2022-08-31T06:29:18.170Z,85.22
2022-08-31T06:31:35.292Z,85.13
2022-08-31T06:33:55.741Z,85.02
2022-08-31T06:36:12.839Z,84.83
2022-08-31T06:38:29.978Z,84.37
2022-08-31T06:40:50.092Z,83.16
2022-08-31T06:43:07.537Z,85.09
2022-08-31T06:45:24.510Z,85.90
2022-08-31T06:47:41.489Z,87.10
2022-08-31T06:49:59.410Z,85.61
2022-08-31T06:52:16.753Z,83.99
2022-08-31T06:54:33.735Z,83.94
2022-08-31T06:56:50.761Z,83.94
2022-08-31T06:59:08.793Z,85.83
2022-08-31T07:01:26.246Z,85.20
2022-08-31T07:03:52.540Z,85.19
2022-08-31T07:06:09.879Z,85.66
2022-08-31T07:08:28.413Z,84.60
2022-08-31T07:10:45.715Z,84.38
2022-08-31T07:13:02.783Z,83.32
2022-08-31T07:15:19.742Z,85.99
2022-08-31T07:17:37.083Z,84.09
2022-08-31T07:19:54.051Z,85.06
2022-08-31T07:22:13.392Z,85.89
2022-08-31T07:24:33.006Z,85.00
2022-08-31T07:26:50.352Z,87.48
2022-08-31T07:29:07.279Z,84.96
2022-08-31T07:31:24.702Z,84.92
2022-08-31T07:33:41.740Z,84.76
2022-08-31T07:35:59.093Z,84.61
2022-08-31T07:38:16.188Z,83.97
2022-08-31T07:40:33.443Z,83.94
2022-08-31T07:42:50.523Z,82.10
2022-08-31T07:45:09.343Z,82.00
2022-08-31T07:47:29.610Z,81.97
2022-08-31T07:49:46.968Z,82.72
2022-08-31T07:52:04.289Z,81.61
2022-08-31T07:54:21.713Z,81.62
2022-08-31T07:56:40.031Z,81.79
2022-08-31T07:58:56.969Z,82.08
2022-08-31T08:01:13.918Z,81.01
2022-08-31T08:03:30.927Z,80.66
2022-08-31T08:05:48.200Z,80.26
2022-08-31T08:08:07.282Z,80.00
2022-08-31T08:10:26.797Z,78.81
2022-08-31T08:12:43.753Z,79.60
2022-08-31T08:15:01.119Z,80.29
2022-08-31T08:17:18.212Z,79.24
2022-08-31T08:19:37.657Z,79.27
2022-08-31T08:21:54.607Z,78.71
2022-08-31T08:24:11.900Z,78.75
2022-08-31T08:26:28.907Z,79.15
2022-08-31T08:28:46.234Z,79.24
2022-08-31T08:31:03.366Z,77.37
2022-08-31T08:33:21.723Z,79.39
2022-08-31T08:35:38.705Z,78.35
2022-08-31T08:37:59.108Z,78.10
2022-08-31T08:40:18.333Z,79.30
2022-08-31T08:42:35.466Z,81.24
2022-08-31T08:44:52.750Z,78.97
2022-08-31T08:47:10.098Z,77.26
2022-08-31T08:49:27.587Z,75.58
2022-08-31T08:51:44.592Z,74.06
2022-08-31T08:54:01.913Z,74.60
2022-08-31T08:56:32.717Z,73.41
2022-08-31T08:58:50.675Z,75.22
2022-08-31T09:01:07.696Z,73.95
2022-08-31T09:03:24.711Z,73.74
2022-08-31T09:05:41.683Z,72.81
2022-08-31T09:07:58.989Z,73.77
2022-08-31T09:10:16.263Z,71.73
2022-08-31T09:12:33.323Z,70.94
2022-08-31T09:14:51.240Z,67.00
2022-08-31T09:17:08.322Z,67.50
2022-08-31T09:19:25.214Z,66.14
2022-08-31T09:21:42.287Z,66.30
2022-08-31T09:23:59.258Z,67.09
2022-08-31T09:26:16.296Z,66.60
2022-08-31T09:28:33.249Z,68.02
2022-08-31T09:30:51.249Z,66.09
2022-08-31T09:33:08.337Z,67.09
2022-08-31T09:35:25.324Z,67.36
2022-08-31T09:37:42.362Z,67.56
2022-08-31T09:40:00.702Z,67.23
2022-08-31T09:42:20.281Z,65.09
2022-08-31T09:44:37.241Z,64.99
2022-08-31T09:46:54.233Z,65.81
2022-08-31T09:49:11.175Z,65.90
2022-08-31T09:51:28.187Z,65.96
2022-08-31T09:53:45.165Z,66.81
2022-08-31T09:56:02.344Z,65.07
2022-08-31T09:58:19.664Z,64.71
2022-08-31T10:00:36.628Z,66.17
2022-08-31T10:02:53.648Z,67.67
2022-08-31T10:05:10.918Z,68.10
2022-08-31T10:07:28.033Z,67.51
2022-08-31T10:09:44.989Z,68.73
2022-08-31T10:12:03.406Z,69.20
2022-08-31T10:14:20.399Z,71.73
2022-08-31T10:16:37.366Z,70.45
2022-08-31T10:18:54.322Z,71.14
2022-08-31T10:21:11.353Z,71.29
2022-08-31T10:23:28.300Z,74.63
2022-08-31T10:25:45.486Z,73.15
2022-08-31T10:28:02.744Z,72.50
2022-08-31T10:30:20.151Z,78.20
2022-08-31T10:32:38.029Z,77.57
2022-08-31T10:34:55.952Z,77.75
2022-08-31T10:37:13.041Z,76.44
2022-08-31T10:39:30.118Z,77.31
2022-08-31T10:41:47.428Z,77.45
2022-08-31T10:44:04.649Z,76.67
2022-08-31T10:46:21.775Z,76.75
2022-08-31T10:48:39.036Z,78.08
2022-08-31T10:50:56.185Z,78.08
2022-08-31T10:53:13.176Z,77.03
2022-08-31T10:55:30.233Z,77.30
2022-08-31T10:57:47.227Z,77.76
2022-08-31T11:00:04.258Z,77.78
2022-08-31T11:02:21.389Z,76.47
2022-08-31T11:04:38.755Z,76.06
2022-08-31T11:06:55.810Z,77.38
2022-08-31T11:09:14.886Z,77.80
2022-08-31T11:11:33.011Z,77.46
2022-08-31T11:13:54.462Z,75.77
2022-08-31T11:16:11.850Z,75.30
2022-08-31T11:18:29.190Z,76.45
2022-08-31T11:20:46.399Z,76.66
2022-08-31T11:23:03.797Z,75.92
2022-08-31T11:25:20.735Z,75.40
2022-08-31T11:27:39.175Z,74.69
2022-08-31T11:29:56.208Z,73.88
2022-08-31T11:32:13.215Z,72.51
2022-08-31T11:34:30.274Z,72.21
2022-08-31T11:36:47.388Z,73.19
2022-08-31T11:39:04.345Z,70.72
2022-08-31T11:41:21.653Z,71.13
2022-08-31T11:43:39.419Z,69.50
2022-08-31T11:45:57.672Z,69.53
2022-08-31T11:48:14.626Z,67.56
2022-08-31T11:50:32.649Z,66.04
2022-08-31T11:52:49.940Z,64.38
2022-08-31T11:55:06.916Z,62.64
2022-08-31T11:57:23.944Z,61.79
2022-08-31T11:59:41.011Z,59.55
2022-08-31T12:01:58.101Z,56.59
2022-08-31T12:04:18.190Z,56.05
2022-08-31T12:06:40.702Z,54.63
2022-08-31T12:08:58.046Z,53.54
2022-08-31T12:11:17.902Z,53.77
2022-08-31T12:13:36.806Z,52.85
2022-08-31T12:15:53.772Z,53.46
2022-08-31T12:18:10.870Z,53.82
2022-08-31T12:20:27.862Z,53.30
2022-08-31T12:22:45.244Z,53.22
2022-08-31T12:25:02.235Z,54.38
2022-08-31T12:27:19.210Z,54.49
2022-08-31T12:29:36.306Z,54.36
2022-08-31T12:31:53.606Z,54.51
2022-08-31T12:34:11.037Z,53.32
2022-08-31T12:36:28.113Z,52.15
2022-08-31T12:38:45.492Z,51.91
2022-08-31T12:41:02.462Z,51.26
2022-08-31T12:43:20.688Z,51.08
2022-08-31T12:45:38.001Z,50.51
2022-08-31T12:47:55.068Z,49.88
2022-08-31T12:50:13.886Z,49.98
2022-08-31T12:52:35.044Z,52.21
2022-08-31T12:54:52.118Z,51.51
2022-08-31T12:57:09.227Z,51.25
2022-08-31T12:59:45.646Z,50.52
2022-08-31T13:02:04.530Z,49.66
2022-08-31T13:04:22.096Z,48.53
2022-08-31T13:06:39.183Z,48.11
2022-08-31T13:08:56.193Z,48.16
2022-08-31T13:11:13.783Z,49.49
2022-08-31T13:13:30.975Z,50.75
2022-08-31T13:15:48.371Z,49.66
2022-08-31T13:18:05.419Z,50.39
2022-08-31T13:20:22.361Z,50.54
2022-08-31T13:22:39.415Z,49.54
2022-08-31T13:24:56.353Z,50.30
2022-08-31T13:27:13.379Z,48.49
2022-08-31T13:29:30.744Z,48.46
2022-08-31T13:31:47.836Z,47.23
2022-08-31T13:34:04.997Z,47.79
2022-08-31T13:36:22.148Z,47.94
2022-08-31T13:38:39.264Z,46.85
2022-08-31T13:40:56.236Z,47.69
2022-08-31T13:43:13.593Z,47.67
2022-08-31T13:45:31.009Z,47.00
2022-08-31T13:47:56.828Z,46.92
2022-08-31T13:50:14.845Z,47.36
2022-08-31T13:52:32.219Z,48.70
2022-08-31T13:54:49.259Z,49.20
2022-08-31T13:57:06.205Z,49.04
2022-08-31T13:59:23.609Z,48.87
2022-08-31T14:01:40.924Z,48.52
2022-08-31T14:03:58.343Z,48.63
2022-08-31T14:06:15.769Z,48.47
2022-08-31T14:08:33.179Z,49.07
2022-08-31T14:10:50.476Z,49.10
2022-08-31T14:13:08.744Z,49.65
2022-08-31T14:15:25.735Z,49.27
2022-08-31T14:17:43.169Z,48.61
2022-08-31T14:20:00.404Z,49.03
2022-08-31T14:22:18.575Z,46.94
2022-08-31T14:24:36.528Z,46.36
2022-08-31T14:26:54.105Z,45.96
2022-08-31T14:29:11.493Z,45.43
2022-08-31T14:31:28.476Z,44.87
2022-08-31T14:33:45.593Z,45.07
2022-08-31T14:36:02.627Z,44.61
2022-08-31T14:38:20.088Z,45.27
2022-08-31T14:40:38.626Z,44.45
2022-08-31T14:42:56.122Z,44.43
2022-08-31T14:45:13.161Z,45.23
2022-08-31T14:47:30.516Z,45.29
2022-08-31T14:49:47.870Z,43.65
2022-08-31T14:52:05.913Z,44.50
2022-08-31T14:54:23.031Z,43.70
2022-08-31T14:56:40.048Z,45.18
2022-08-31T14:58:57.536Z,43.23
2022-08-31T15:01:16.109Z,42.75
2022-08-31T15:03:33.531Z,43.37
2022-08-31T15:05:50.964Z,42.85
2022-08-31T15:08:07.914Z,43.00
2022-08-31T15:10:24.906Z,43.91
2022-08-31T15:12:41.897Z,42.66
2022-08-31T15:14:58.834Z,43.58
2022-08-31T15:17:19.564Z,45.30
2022-08-31T15:19:39.769Z,43.91
2022-08-31T15:21:58.900Z,43.64
2022-08-31T15:24:20.210Z,44.45
2022-08-31T15:26:37.218Z,44.52
2022-08-31T15:28:54.514Z,45.68
2022-08-31T15:31:12.611Z,45.29
2022-08-31T15:33:29.548Z,45.13
2022-08-31T15:35:46.549Z,45.17
2022-08-31T15:38:03.858Z,45.47
2022-08-31T15:40:20.970Z,45.52
2022-08-31T15:42:38.161Z,44.70
2022-08-31T15:44:55.209Z,44.14
2022-08-31T15:47:12.279Z,43.88
2022-08-31T15:49:29.506Z,43.48
2022-08-31T15:51:46.570Z,43.64
2022-08-31T15:54:21.258Z,44.32
2022-08-31T15:56:38.666Z,44.01
2022-08-31T15:58:55.704Z,44.04
2022-08-31T16:01:12.676Z,44.06
2022-08-31T16:03:33.280Z,43.86
2022-08-31T16:05:52.444Z,44.24
2022-08-31T16:08:09.516Z,44.62
2022-08-31T16:10:26.765Z,45.19
2022-08-31T16:12:44.136Z,44.91
2022-08-31T16:15:01.232Z,45.02
2022-08-31T16:17:18.231Z,44.49
2022-08-31T16:19:36.060Z,44.65
2022-08-31T16:21:53.093Z,44.68
2022-08-31T16:24:10.149Z,44.95
2022-08-31T16:26:27.457Z,45.75
2022-08-31T16:28:45.426Z,44.97
2022-08-31T16:31:02.665Z,45.57
2022-08-31T16:33:19.713Z,46.52
2022-08-31T16:35:37.074Z,45.55
2022-08-31T16:37:54.418Z,45.70
2022-08-31T16:40:12.957Z,45.59
2022-08-31T16:42:30.505Z,45.57
2022-08-31T16:44:48.095Z,46.40
2022-08-31T16:47:05.467Z,47.42
2022-08-31T16:49:22.401Z,47.50
2022-08-31T16:51:39.701Z,47.71
2022-08-31T16:53:56.783Z,48.24
2022-08-31T16:56:14.162Z,48.26
2022-08-31T17:01:08.753Z,47.46
2022-08-31T17:03:25.709Z,48.95
2022-08-31T17:05:42.939Z,48.95
2022-08-31T17:07:59.898Z,49.13
2022-08-31T17:10:17.844Z,49.77
2022-08-31T17:12:34.801Z,48.13
2022-08-31T17:14:51.769Z,49.39
2022-08-31T17:17:09.048Z,49.75
2022-08-31T17:19:26.005Z,49.60
2022-08-31T17:21:43.605Z,48.99
2022-08-31T17:24:01.109Z,49.15
2022-08-31T17:26:19.347Z,49.29
2022-08-31T17:28:36.291Z,50.38
2022-08-31T17:30:54.202Z,51.04
2022-08-31T17:33:11.245Z,51.55
2022-08-31T17:35:28.567Z,51.97
2022-08-31T17:37:45.619Z,53.20
2022-08-31T17:40:02.513Z,53.97
2022-08-31T17:42:19.486Z,54.51
2022-08-31T17:44:36.419Z,54.63
2022-08-31T17:46:53.433Z,55.13
2022-08-31T17:49:10.744Z,55.71
2022-08-31T17:51:30.147Z,56.14
2022-08-31T17:53:47.505Z,55.67
2022-08-31T17:56:04.778Z,55.23
2022-08-31T17:58:21.840Z,55.93
2022-08-31T18:00:38.813Z,55.48
2022-08-31T18:02:55.987Z,56.71
2022-08-31T18:05:14.052Z,57.71
2022-08-31T18:07:31.426Z,56.26
2022-08-31T18:09:49.176Z,58.42
2022-08-31T18:12:06.023Z,58.34
2022-08-31T18:14:23.389Z,56.97
2022-08-31T18:16:40.647Z,58.37
2022-08-31T18:18:57.708Z,57.71
2022-08-31T18:21:15.994Z,57.71
2022-08-31T18:23:33.022Z,58.02
2022-08-31T18:25:49.982Z,58.69
2022-08-31T18:28:07.292Z,59.41
2022-08-31T18:30:24.387Z,59.82
2022-08-31T18:32:42.440Z,59.94
2022-08-31T18:35:04.683Z,60.67
2022-08-31T18:37:21.874Z,61.06
2022-08-31T18:39:51.493Z,61.36
2022-08-31T18:42:10.336Z,61.98
2022-08-31T18:44:27.622Z,62.08
2022-08-31T18:46:45.054Z,62.44
2022-08-31T18:49:12.199Z,63.00
2022-08-31T18:51:29.826Z,61.83
2022-08-31T18:53:46.853Z,62.17
2022-08-31T18:56:03.883Z,62.46
2022-08-31T18:58:21.312Z,62.60
2022-08-31T19:00:38.480Z,62.21
2022-08-31T19:02:55.824Z,62.99
2022-08-31T19:05:12.852Z,63.07
2022-08-31T19:07:29.810Z,63.47
2022-08-31T19:09:47.070Z,64.08
2022-08-31T19:12:04.535Z,63.60
2022-08-31T19:14:21.534Z,64.17
2022-08-31T19:16:38.621Z,64.33
2022-08-31T19:18:55.820Z,64.48
2022-08-31T19:21:13.489Z,64.73
2022-08-31T19:23:30.814Z,64.63
2022-08-31T19:25:49.083Z,64.73
2022-08-31T19:28:06.181Z,65.17
2022-08-31T19:30:27.871Z,64.83
2022-08-31T19:32:45.588Z,65.65
2022-08-31T19:35:02.927Z,65.34
2022-08-31T19:37:19.850Z,65.77
2022-08-31T19:39:37.082Z,65.15
2022-08-31T19:41:54.586Z,66.40
2022-08-31T19:44:11.637Z,66.31
2022-08-31T19:46:28.932Z,66.07
2022-08-31T19:48:46.226Z,67.23
2022-08-31T19:51:03.528Z,67.49
2022-08-31T19:53:21.265Z,66.97
2022-08-31T19:55:39.916Z,67.06
2022-08-31T19:57:57.206Z,67.20
2022-08-31T20:00:15.274Z,66.76
2022-08-31T20:02:33.306Z,66.12
2022-08-31T20:04:50.241Z,66.41
2022-08-31T20:07:07.536Z,67.41
2022-08-31T20:09:27.273Z,68.72
2022-08-31T20:11:44.305Z,69.14
2022-08-31T20:14:01.379Z,67.80
2022-08-31T20:16:22.150Z,68.29
2022-08-31T20:18:43.740Z,68.78
2022-08-31T20:21:00.974Z,68.67
2022-08-31T20:23:19.454Z,69.36
2022-08-31T20:25:37.974Z,69.08
2022-08-31T20:27:56.983Z,68.30
2022-08-31T20:30:14.007Z,69.12
2022-08-31T20:32:32.064Z,69.60
2022-08-31T20:34:49.154Z,69.26
2022-08-31T20:37:06.211Z,68.46
2022-08-31T20:39:23.131Z,68.44
2022-08-31T20:41:40.087Z,68.73
2022-08-31T20:43:57.398Z,69.39
2022-08-31T20:46:14.479Z,68.92
2022-08-31T20:48:34.137Z,70.38
2022-08-31T20:50:52.197Z,69.55
2022-08-31T20:53:09.432Z,70.30
2022-08-31T20:55:26.493Z,70.51
2022-08-31T20:57:43.706Z,70.54
2022-08-31T21:00:00.760Z,72.15
2022-08-31T21:02:17.784Z,72.27
2022-08-31T21:04:34.927Z,72.05
2022-08-31T21:06:51.997Z,70.96
2022-08-31T21:09:09.228Z,71.19
2022-08-31T21:11:26.464Z,72.15
2022-08-31T21:13:43.430Z,71.66
2022-08-31T21:16:00.732Z,72.29
2022-08-31T21:18:18.050Z,72.81
2022-08-31T21:20:35.128Z,71.61
2022-08-31T21:22:52.107Z,72.51
2022-08-31T21:25:09.363Z,71.22
2022-08-31T21:27:26.406Z,73.83
2022-08-31T21:29:43.471Z,73.65
2022-08-31T21:32:03.818Z,72.59
2022-08-31T21:34:21.383Z,73.88
2022-08-31T21:36:39.348Z,73.93
2022-08-31T21:38:56.608Z,74.36
2022-08-31T21:41:13.509Z,74.35
2022-08-31T21:43:30.493Z,73.13
2022-08-31T21:45:47.445Z,74.18
2022-08-31T21:48:04.476Z,73.84
2022-08-31T21:50:21.611Z,74.09
2022-08-31T21:52:38.875Z,74.49
2022-08-31T21:54:55.828Z,75.36
2022-08-31T21:57:13.004Z,74.62
2022-08-31T21:59:29.872Z,74.99
2022-08-31T22:01:47.315Z,75.10
2022-08-31T22:04:05.357Z,75.34
2022-08-31T22:06:22.317Z,75.42
2022-08-31T22:08:44.105Z,75.49
2022-08-31T22:11:01.410Z,76.04
2022-08-31T22:13:18.501Z,75.71
2022-08-31T22:15:35.611Z,75.50
2022-08-31T22:18:25.878Z,75.71
2022-08-31T22:20:30.556Z,76.00
2022-08-31T22:22:48.078Z,75.98
2022-08-31T22:25:05.641Z,76.42
2022-08-31T22:27:23.666Z,76.19
2022-08-31T22:29:40.798Z,76.38
2022-08-31T22:31:58.258Z,76.41
2022-08-31T22:34:15.606Z,76.37
2022-08-31T22:36:32.780Z,76.23
2022-08-31T22:38:50.992Z,76.79
2022-08-31T22:41:09.153Z,76.69
2022-08-31T22:43:26.580Z,76.97
2022-08-31T22:45:48.401Z,76.92
2022-08-31T22:48:05.806Z,76.38
2022-08-31T22:50:23.783Z,76.67
2022-08-31T22:52:40.914Z,76.71
2022-08-31T22:54:57.922Z,76.62
2022-08-31T22:57:14.876Z,76.78
2022-08-31T22:59:32.183Z,76.87
2022-08-31T23:01:49.506Z,76.64
2022-08-31T23:04:06.936Z,76.85
2022-08-31T23:06:27.015Z,77.83
2022-08-31T23:08:43.945Z,77.51
2022-08-31T23:11:01.284Z,78.10
2022-08-31T23:13:18.539Z,76.77
2022-08-31T23:15:35.617Z,77.44
2022-08-31T23:17:53.579Z,78.43
2022-08-31T23:20:10.931Z,78.22
2022-08-31T23:22:27.979Z,77.20
2022-08-31T23:24:46.271Z,78.60
2022-08-31T23:27:04.820Z,77.32
2022-08-31T23:29:23.322Z,78.72
2022-08-31T23:31:40.367Z,78.90
2022-08-31T23:33:57.475Z,78.33
2022-08-31T23:36:14.749Z,77.81
2022-08-31T23:38:32.387Z,77.84
2022-08-31T23:40:49.794Z,78.55
2022-08-31T23:43:11.054Z,78.86
2022-08-31T23:45:28.153Z,78.10
2022-08-31T23:47:45.066Z,78.83
2022-08-31T23:50:02.345Z,78.00
2022-08-31T23:52:21.783Z,77.98
2022-08-31T23:54:38.885Z,78.81
2022-08-31T23:56:56.467Z,79.31
2022-08-31T23:59:13.509Z,79.41
